createdAt,value
2019-03-06T00:00:01.016Z,0.00
2019-03-06T00:01:53.921Z,0.00
2019-03-06T00:02:53.921Z,0.00
2019-03-06T00:04:46.819Z,0.00
2019-03-06T00:05:46.827Z,0.00
2019-03-06T00:07:39.730Z,0.00
2019-03-06T00:08:39.733Z,0.00
2019-03-06T00:10:32.628Z,0.00
2019-03-06T00:11:32.638Z,0.00
2019-03-06T00:13:25.547Z,0.00
2019-03-06T00:14:25.544Z,0.00
2019-03-06T00:16:18.933Z,0.00
2019-03-06T00:17:18.945Z,0.00
2019-03-06T00:19:11.863Z,0.00
2019-03-06T00:20:11.865Z,0.00
2019-03-06T00:22:04.793Z,0.00
2019-03-06T00:23:04.794Z,0.00
2019-03-06T00:24:57.689Z,0.00
2019-03-06T00:25:57.699Z,0.00
2019-03-06T00:27:50.607Z,0.00
2019-03-06T00:28:50.609Z,0.00
2019-03-06T00:30:43.508Z,0.00
2019-03-06T00:31:43.514Z,0.00
2019-03-06T00:33:36.423Z,0.00
2019-03-06T00:34:36.425Z,0.00
2019-03-06T00:36:29.825Z,0.00
2019-03-06T00:37:29.833Z,0.00
2019-03-06T00:39:22.740Z,0.00
2019-03-06T00:40:22.742Z,0.00
2019-03-06T00:42:15.639Z,0.00
2019-03-06T00:43:15.642Z,0.00
2019-03-06T00:45:08.543Z,0.00
2019-03-06T00:46:08.547Z,0.00
2019-03-06T00:48:01.453Z,0.00
2019-03-06T00:49:01.455Z,0.00
2019-03-06T00:50:54.350Z,0.00
2019-03-06T00:51:54.359Z,0.00
2019-03-06T00:53:47.257Z,0.00
2019-03-06T00:54:47.262Z,0.00
2019-03-06T00:56:40.161Z,0.00
2019-03-06T00:57:40.168Z,0.00
2019-03-06T00:59:33.069Z,0.00
2019-03-06T01:00:33.074Z,0.00
2019-03-06T01:02:25.973Z,0.00
2019-03-06T01:03:25.974Z,0.00
2019-03-06T01:05:18.866Z,0.00
2019-03-06T01:06:18.877Z,0.00
2019-03-06T01:08:11.784Z,0.00
2019-03-06T01:09:11.786Z,0.00
2019-03-06T01:11:04.676Z,0.00
2019-03-06T01:12:04.690Z,0.00
2019-03-06T01:13:57.586Z,0.00
2019-03-06T01:14:57.590Z,0.00
2019-03-06T01:16:50.485Z,0.00
2019-03-06T01:17:50.495Z,0.00
2019-03-06T01:19:43.396Z,0.00
2019-03-06T01:20:43.397Z,0.00
2019-03-06T01:22:36.301Z,0.00
2019-03-06T01:23:36.305Z,0.00
2019-03-06T01:25:29.205Z,0.00
2019-03-06T01:26:29.205Z,0.00
2019-03-06T01:28:22.112Z,0.00
2019-03-06T01:29:22.107Z,0.00
2019-03-06T01:31:15.020Z,0.00
2019-03-06T01:32:15.013Z,0.00
2019-03-06T01:34:07.923Z,0.00
2019-03-06T01:35:07.919Z,0.00
2019-03-06T01:37:00.817Z,0.00
2019-03-06T01:38:00.823Z,0.00
2019-03-06T01:39:53.733Z,0.00
2019-03-06T01:40:53.727Z,0.00
2019-03-06T01:42:46.635Z,0.00
2019-03-06T01:43:46.634Z,0.00
2019-03-06T01:45:39.540Z,0.00
2019-03-06T01:46:39.537Z,0.00
2019-03-06T01:48:32.441Z,0.00
2019-03-06T01:49:32.443Z,0.00
2019-03-06T01:51:25.341Z,0.00
2019-03-06T01:52:25.348Z,0.00
2019-03-06T01:54:18.251Z,0.00
2019-03-06T01:55:18.252Z,0.00
2019-03-06T01:57:11.146Z,0.00
2019-03-06T01:58:11.156Z,0.00
2019-03-06T02:00:04.055Z,0.00
2019-03-06T02:01:04.058Z,0.00
2019-03-06T02:02:56.964Z,0.00
2019-03-06T02:03:56.963Z,0.00
2019-03-06T02:05:49.856Z,0.00
2019-03-06T02:06:49.867Z,0.00
2019-03-06T02:08:42.776Z,0.00
2019-03-06T02:09:42.772Z,0.00
2019-03-06T02:11:35.666Z,0.00
2019-03-06T02:12:35.674Z,0.00
2019-03-06T02:14:28.583Z,0.00
2019-03-06T02:15:28.579Z,0.00
2019-03-06T02:17:21.475Z,0.00
2019-03-06T02:18:21.485Z,0.00
2019-03-06T02:20:14.391Z,0.00
2019-03-06T02:21:14.392Z,0.00
2019-03-06T02:23:07.292Z,0.00
2019-03-06T02:24:07.295Z,0.00
2019-03-06T02:26:00.261Z,0.00
2019-03-06T02:27:00.201Z,0.00
2019-03-06T02:28:53.104Z,0.00
2019-03-06T02:29:53.106Z,0.00
2019-03-06T02:31:46.000Z,0.00
2019-03-06T02:32:46.009Z,0.00
2019-03-06T02:34:38.918Z,0.00
2019-03-06T02:35:38.916Z,0.00
2019-03-06T02:37:31.827Z,0.00
2019-03-06T02:38:31.823Z,0.00
2019-03-06T02:40:24.727Z,0.00
2019-03-06T02:41:24.729Z,0.00
2019-03-06T02:43:17.634Z,0.00
2019-03-06T02:44:17.637Z,0.00
2019-03-06T02:46:10.531Z,0.00
2019-03-06T02:47:10.539Z,0.00
2019-03-06T02:49:03.446Z,0.00
2019-03-06T02:50:03.444Z,0.00
2019-03-06T02:51:56.341Z,0.00
2019-03-06T02:52:56.350Z,0.00
2019-03-06T02:54:49.252Z,0.00
2019-03-06T02:55:49.257Z,0.00
2019-03-06T02:57:42.149Z,0.00
2019-03-06T02:58:42.162Z,0.00
2019-03-06T03:00:35.066Z,0.00
2019-03-06T03:01:35.066Z,0.00
2019-03-06T03:03:27.970Z,0.00
2019-03-06T03:04:27.971Z,0.00
2019-03-06T03:06:20.868Z,0.00
2019-03-06T03:07:20.876Z,0.00
2019-03-06T03:09:13.778Z,0.00
2019-03-06T03:10:13.797Z,0.00
2019-03-06T03:12:06.684Z,0.00
2019-03-06T03:13:06.686Z,0.00
2019-03-06T03:14:59.594Z,0.00
2019-03-06T03:15:59.594Z,0.00
2019-03-06T03:17:52.489Z,0.00
2019-03-06T03:18:52.501Z,0.00
2019-03-06T03:20:45.403Z,0.00
2019-03-06T03:21:45.411Z,0.00
2019-03-06T03:23:38.308Z,0.00
2019-03-06T03:24:38.310Z,0.00
2019-03-06T03:26:31.205Z,0.00
2019-03-06T03:27:31.214Z,0.00
2019-03-06T03:29:24.116Z,0.00
2019-03-06T03:30:24.157Z,0.00
2019-03-06T03:32:17.033Z,0.00
2019-03-06T03:33:17.028Z,0.00
2019-03-06T03:35:09.931Z,0.00
2019-03-06T03:36:09.935Z,0.00
2019-03-06T03:38:02.831Z,0.00
2019-03-06T03:39:02.838Z,0.00
2019-03-06T03:40:55.742Z,0.00
2019-03-06T03:41:55.742Z,0.00
2019-03-06T03:43:48.646Z,0.00
2019-03-06T03:44:48.651Z,0.00
2019-03-06T03:46:42.039Z,0.00
2019-03-06T03:47:42.051Z,0.00
2019-03-06T03:49:34.968Z,0.00
2019-03-06T03:50:34.952Z,0.00
2019-03-06T03:52:27.848Z,0.00
2019-03-06T03:53:27.865Z,0.00
2019-03-06T03:55:20.763Z,0.00
2019-03-06T03:56:20.766Z,0.00
2019-03-06T03:58:13.662Z,0.00
2019-03-06T03:59:13.672Z,0.00
2019-03-06T04:01:06.578Z,0.00
2019-03-06T04:02:06.582Z,0.00
2019-03-06T04:03:59.485Z,0.00
2019-03-06T04:04:59.489Z,0.00
2019-03-06T04:06:52.533Z,0.00
2019-03-06T04:07:52.548Z,0.00
2019-03-06T04:09:45.448Z,0.00
2019-03-06T04:10:45.449Z,0.00
2019-03-06T04:12:38.346Z,0.00
2019-03-06T04:13:38.357Z,0.00
2019-03-06T04:15:31.268Z,0.00
2019-03-06T04:16:31.265Z,0.00
2019-03-06T04:18:24.160Z,0.00
2019-03-06T04:19:24.175Z,0.00
2019-03-06T04:21:17.082Z,0.00
2019-03-06T04:22:17.076Z,0.00
2019-03-06T04:24:09.981Z,0.00
2019-03-06T04:25:09.982Z,0.00
2019-03-06T04:27:02.878Z,0.00
2019-03-06T04:28:02.888Z,0.00
2019-03-06T04:29:55.791Z,0.00
2019-03-06T04:30:55.797Z,0.00
2019-03-06T04:32:48.692Z,0.00
2019-03-06T04:33:48.700Z,0.00
2019-03-06T04:35:41.605Z,0.00
2019-03-06T04:36:41.606Z,0.00
2019-03-06T04:38:34.503Z,0.00
2019-03-06T04:39:34.514Z,0.00
2019-03-06T04:41:27.423Z,0.00
2019-03-06T04:42:27.425Z,0.00
2019-03-06T04:44:20.330Z,0.00
2019-03-06T04:45:20.332Z,0.00
2019-03-06T04:47:13.233Z,0.00
2019-03-06T04:48:13.238Z,0.00
2019-03-06T04:50:06.144Z,0.00
2019-03-06T04:51:06.144Z,0.00
2019-03-06T04:52:59.041Z,0.00
2019-03-06T04:53:59.048Z,0.00
2019-03-06T04:55:51.963Z,0.00
2019-03-06T04:56:51.965Z,0.00
2019-03-06T04:58:44.852Z,0.00
2019-03-06T04:59:44.862Z,0.00
2019-03-06T05:01:37.767Z,0.00
2019-03-06T05:02:37.768Z,0.00
2019-03-06T05:04:30.674Z,0.00
2019-03-06T05:05:30.674Z,0.00
2019-03-06T05:07:23.573Z,0.00
2019-03-06T05:08:23.582Z,0.00
2019-03-06T05:10:16.483Z,0.00
2019-03-06T05:11:16.489Z,0.00
2019-03-06T05:13:09.388Z,0.00
2019-03-06T05:14:09.396Z,0.00
2019-03-06T05:16:02.296Z,0.00
2019-03-06T05:17:02.299Z,0.00
2019-03-06T05:18:55.195Z,0.00
2019-03-06T05:19:55.205Z,0.00
2019-03-06T05:21:48.110Z,0.00
2019-03-06T05:22:48.114Z,0.00
2019-03-06T05:24:41.013Z,0.00
2019-03-06T05:25:41.022Z,0.00
2019-03-06T05:27:33.978Z,0.00
2019-03-06T05:28:33.983Z,0.00
2019-03-06T05:30:26.896Z,0.00
2019-03-06T05:31:26.889Z,0.00
2019-03-06T05:33:20.300Z,0.00
2019-03-06T05:34:20.309Z,0.00
2019-03-06T05:36:13.210Z,0.00
2019-03-06T05:37:13.218Z,0.00
2019-03-06T05:39:06.111Z,0.00
2019-03-06T05:40:06.122Z,0.00
2019-03-06T05:41:59.018Z,4.00
2019-03-06T05:42:59.029Z,4.00
2019-03-06T05:44:51.932Z,4.00
2019-03-06T05:45:51.936Z,4.00
2019-03-06T05:47:44.827Z,8.00
2019-03-06T05:48:44.844Z,12.00
2019-03-06T05:50:37.748Z,12.00
2019-03-06T05:51:37.751Z,12.00
2019-03-06T05:53:30.648Z,20.00
2019-03-06T05:54:30.660Z,20.00
2019-03-06T05:56:24.556Z,24.00
2019-03-06T05:57:24.559Z,28.00
2019-03-06T05:59:17.460Z,36.00
2019-03-06T06:00:17.467Z,44.00
2019-03-06T06:02:10.373Z,64.00
2019-03-06T06:03:10.378Z,80.00
2019-03-06T06:05:03.284Z,100.00
2019-03-06T06:06:03.285Z,116.00
2019-03-06T06:07:56.183Z,136.00
2019-03-06T06:08:56.192Z,148.00
2019-03-06T06:10:49.095Z,168.00
2019-03-06T06:11:49.098Z,176.00
2019-03-06T06:13:41.991Z,180.00
2019-03-06T06:14:42.003Z,184.00
2019-03-06T06:16:34.910Z,200.00
2019-03-06T06:17:34.915Z,216.00
2019-03-06T06:19:27.809Z,240.00
2019-03-06T06:20:27.819Z,256.00
2019-03-06T06:22:20.723Z,284.00
2019-03-06T06:23:20.729Z,300.00
2019-03-06T06:25:13.699Z,332.00
2019-03-06T06:26:13.637Z,364.00
2019-03-06T06:28:06.536Z,416.00
2019-03-06T06:29:06.549Z,448.00
2019-03-06T06:30:59.454Z,468.00
2019-03-06T06:31:59.457Z,484.00
2019-03-06T06:33:53.352Z,608.00
2019-03-06T06:34:53.359Z,696.00
2019-03-06T06:36:46.267Z,820.00
2019-03-06T06:37:46.270Z,856.00
2019-03-06T06:39:39.173Z,856.00
2019-03-06T06:40:39.182Z,900.00
2019-03-06T06:42:32.091Z,1020.00
2019-03-06T06:43:32.096Z,1072.00
2019-03-06T06:45:24.995Z,1240.00
2019-03-06T06:46:24.999Z,1276.00
2019-03-06T06:48:17.893Z,1420.00
2019-03-06T06:49:17.903Z,1476.00
2019-03-06T06:51:12.325Z,1552.00
2019-03-06T06:52:12.304Z,1592.00
2019-03-06T06:54:05.214Z,1716.00
2019-03-06T06:55:05.216Z,1764.00
2019-03-06T06:56:58.140Z,1796.00
2019-03-06T06:57:58.122Z,1800.00
2019-03-06T06:59:51.029Z,1796.00
2019-03-06T07:00:51.029Z,1800.00
2019-03-06T07:02:43.954Z,1800.00
2019-03-06T07:03:43.938Z,1872.00
2019-03-06T07:05:36.862Z,2032.00
2019-03-06T07:06:36.851Z,2128.00
2019-03-06T07:08:29.773Z,2260.00
2019-03-06T07:09:29.762Z,2372.00
2019-03-06T07:11:22.676Z,2612.00
2019-03-06T07:12:22.678Z,2752.00
2019-03-06T07:14:15.578Z,2952.00
2019-03-06T07:15:15.589Z,3044.00
2019-03-06T07:17:08.496Z,3132.00
2019-03-06T07:18:08.496Z,3156.00
2019-03-06T07:20:01.471Z,3264.00
2019-03-06T07:21:01.407Z,3336.00
2019-03-06T07:22:54.317Z,3392.00
2019-03-06T07:23:54.319Z,3396.00
2019-03-06T07:25:47.225Z,3488.00
2019-03-06T07:26:47.229Z,3520.00
2019-03-06T07:28:40.132Z,3576.00
2019-03-06T07:29:40.147Z,3620.00
2019-03-06T07:31:33.048Z,3704.00
2019-03-06T07:32:33.052Z,3772.00
2019-03-06T07:34:25.957Z,3980.00
2019-03-06T07:35:25.970Z,4116.00
2019-03-06T07:37:28.115Z,4348.00
2019-03-06T07:38:19.374Z,4432.00
2019-03-06T07:40:12.274Z,4528.00
2019-03-06T07:41:12.286Z,4524.00
2019-03-06T07:43:05.196Z,4484.00
2019-03-06T07:44:05.197Z,4468.00
2019-03-06T07:45:58.103Z,4456.00
2019-03-06T07:46:58.107Z,4488.00
2019-03-06T07:48:51.017Z,4568.00
2019-03-06T07:49:51.021Z,4620.00
2019-03-06T07:51:43.927Z,4704.00
2019-03-06T07:52:43.930Z,4744.00
2019-03-06T07:54:36.839Z,4804.00
2019-03-06T07:55:36.841Z,4844.00
2019-03-06T07:57:29.749Z,4940.00
2019-03-06T07:58:29.751Z,5000.00
2019-03-06T08:00:22.653Z,5152.00
2019-03-06T08:01:22.684Z,5240.00
2019-03-06T08:03:15.568Z,5400.00
2019-03-06T08:04:15.594Z,5484.00
2019-03-06T08:06:08.484Z,5604.00
2019-03-06T08:07:08.504Z,5656.00
2019-03-06T08:09:01.904Z,5772.00
2019-03-06T08:10:01.916Z,5832.00
2019-03-06T08:11:54.811Z,5896.00
2019-03-06T08:12:54.817Z,5916.00
2019-03-06T08:14:47.716Z,5964.00
2019-03-06T08:15:47.734Z,6012.00
2019-03-06T08:17:40.632Z,6116.00
2019-03-06T08:18:40.646Z,6148.00
2019-03-06T08:20:34.038Z,6176.00
2019-03-06T08:21:34.054Z,6180.00
2019-03-06T08:23:26.959Z,6132.00
2019-03-06T08:24:27.015Z,6084.00
2019-03-06T08:26:19.872Z,5948.00
2019-03-06T08:27:19.878Z,5896.00
2019-03-06T08:29:13.271Z,5820.00
2019-03-06T08:30:13.285Z,5784.00
2019-03-06T08:32:06.200Z,5728.00
2019-03-06T08:33:06.200Z,5684.00
2019-03-06T08:34:59.102Z,5616.00
2019-03-06T08:35:59.122Z,5600.00
2019-03-06T08:37:52.030Z,5640.00
2019-03-06T08:38:52.036Z,5724.00
2019-03-06T08:40:44.945Z,5980.00
2019-03-06T08:41:44.952Z,6116.00
2019-03-06T08:43:37.860Z,6340.00
2019-03-06T08:44:37.864Z,6412.00
2019-03-06T08:46:30.787Z,6476.00
2019-03-06T08:47:30.786Z,6472.00
2019-03-06T08:49:23.688Z,6448.00
2019-03-06T08:50:23.700Z,6432.00
2019-03-06T08:52:16.610Z,6468.00
2019-03-06T08:53:16.614Z,6524.00
2019-03-06T08:55:11.052Z,6668.00
2019-03-06T08:56:09.528Z,6788.00
2019-03-06T08:58:02.930Z,7052.00
2019-03-06T08:59:02.930Z,7188.00
2019-03-06T09:00:55.840Z,7372.00
2019-03-06T09:02:00.708Z,7396.00
2019-03-06T09:03:48.764Z,7396.00
2019-03-06T09:04:48.787Z,7364.00
2019-03-06T09:06:41.680Z,7228.00
2019-03-06T09:07:41.694Z,7144.00
2019-03-06T09:09:34.593Z,6948.00
2019-03-06T09:10:34.605Z,6836.00
2019-03-06T09:12:27.522Z,6732.00
2019-03-06T09:13:27.519Z,6752.00
2019-03-06T09:15:20.443Z,6972.00
2019-03-06T09:16:20.461Z,7120.00
2019-03-06T09:18:13.380Z,7380.00
2019-03-06T09:19:13.386Z,7512.00
2019-03-06T09:21:06.304Z,7652.00
2019-03-06T09:22:06.313Z,7672.00
2019-03-06T09:23:59.222Z,7692.00
2019-03-06T09:24:59.228Z,7728.00
2019-03-06T09:26:52.149Z,7944.00
2019-03-06T09:27:52.148Z,8176.00
2019-03-06T09:29:45.058Z,8588.00
2019-03-06T09:30:45.073Z,8740.00
2019-03-06T09:32:37.983Z,8996.00
2019-03-06T09:33:37.986Z,9076.00
2019-03-06T09:35:30.909Z,9136.00
2019-03-06T09:36:30.914Z,9104.00
2019-03-06T09:38:23.832Z,9148.00
2019-03-06T09:39:23.836Z,9172.00
2019-03-06T09:41:16.741Z,8924.00
2019-03-06T09:42:18.481Z,8588.00
2019-03-06T09:44:09.670Z,8128.00
2019-03-06T09:45:09.676Z,8096.00
2019-03-06T09:47:02.594Z,8284.00
2019-03-06T09:48:02.599Z,8468.00
2019-03-06T09:49:55.507Z,8832.00
2019-03-06T09:50:55.514Z,9004.00
2019-03-06T09:52:48.951Z,9184.00
2019-03-06T09:53:48.961Z,9208.00
2019-03-06T09:55:41.900Z,9352.00
2019-03-06T09:56:41.910Z,9424.00
2019-03-06T09:58:34.830Z,9460.00
2019-03-06T09:59:34.832Z,9360.00
2019-03-06T10:01:27.742Z,9092.00
2019-03-06T10:02:27.752Z,8968.00
2019-03-06T10:04:20.671Z,8888.00
2019-03-06T10:05:20.674Z,8924.00
2019-03-06T10:07:15.085Z,9016.00
2019-03-06T10:08:15.091Z,8980.00
2019-03-06T10:10:08.001Z,8804.00
2019-03-06T10:11:08.015Z,8736.00
2019-03-06T10:13:03.546Z,8652.00
2019-03-06T10:14:02.439Z,8632.00
2019-03-06T10:15:55.342Z,8584.00
2019-03-06T10:16:55.358Z,8548.00
2019-03-06T10:18:48.283Z,8508.00
2019-03-06T10:19:48.284Z,8496.00
2019-03-06T10:21:41.686Z,8448.00
2019-03-06T10:22:41.703Z,8372.00
2019-03-06T10:24:34.622Z,8164.00
2019-03-06T10:25:34.632Z,8036.00
2019-03-06T10:27:27.553Z,7916.00
2019-03-06T10:28:28.121Z,7928.00
2019-03-06T10:30:20.465Z,7980.00
2019-03-06T10:31:20.479Z,8096.00
2019-03-06T10:33:13.402Z,8292.00
2019-03-06T10:34:13.406Z,8292.00
2019-03-06T10:36:06.322Z,8420.00
2019-03-06T10:38:59.257Z,7740.00
2019-03-06T10:39:59.266Z,7860.00
2019-03-06T10:41:52.170Z,8488.00
2019-03-06T10:42:52.185Z,8520.00
2019-03-06T10:44:45.105Z,8156.00
2019-03-06T10:45:45.110Z,7760.00
2019-03-06T10:47:38.031Z,7276.00
2019-03-06T10:48:38.044Z,7040.00
2019-03-06T10:50:30.951Z,6588.00
2019-03-06T10:51:31.203Z,6532.00
2019-03-06T10:53:23.905Z,6856.00
2019-03-06T10:54:23.902Z,6972.00
2019-03-06T10:56:16.812Z,6780.00
2019-03-06T10:57:16.821Z,6604.00
2019-03-06T10:59:09.778Z,6104.00
2019-03-06T11:00:09.751Z,6016.00
2019-03-06T11:02:02.682Z,6300.00
2019-03-06T11:03:02.678Z,6624.00
2019-03-06T11:04:55.613Z,7544.00
2019-03-06T11:05:55.602Z,7648.00
2019-03-06T11:07:48.561Z,8132.00
2019-03-06T11:08:48.529Z,8608.00
2019-03-06T11:10:41.447Z,9496.00
2019-03-06T11:11:41.464Z,9732.00
2019-03-06T11:13:34.384Z,9732.00
2019-03-06T11:14:34.392Z,9688.00
2019-03-06T11:16:27.308Z,9664.00
2019-03-06T11:17:27.328Z,9660.00
2019-03-06T11:19:20.250Z,9924.00
2019-03-06T11:20:20.277Z,9892.00
2019-03-06T11:22:13.171Z,9592.00
2019-03-06T11:23:13.202Z,9448.00
2019-03-06T11:25:06.114Z,9372.00
2019-03-06T11:26:06.131Z,9540.00
2019-03-06T11:27:59.041Z,9952.00
2019-03-06T11:28:59.054Z,10052.00
2019-03-06T11:30:51.979Z,10252.00
2019-03-06T11:31:51.993Z,10384.00
2019-03-06T11:33:44.995Z,10052.00
2019-03-06T11:34:44.981Z,9996.00
2019-03-06T11:36:37.854Z,10060.00
2019-03-06T11:37:37.871Z,9788.00
2019-03-06T11:39:30.802Z,9644.00
2019-03-06T11:40:30.810Z,10280.00
2019-03-06T11:42:23.724Z,10424.00
2019-03-06T11:43:23.741Z,10692.00
2019-03-06T11:45:16.664Z,10248.00
2019-03-06T11:46:16.675Z,10072.00
2019-03-06T11:48:09.594Z,10192.00
2019-03-06T11:49:09.618Z,10252.00
2019-03-06T11:51:02.540Z,9560.00
2019-03-06T11:52:02.547Z,9780.00
2019-03-06T11:53:55.475Z,9808.00
2019-03-06T11:54:55.487Z,9664.00
2019-03-06T11:56:48.895Z,9416.00
2019-03-06T11:57:48.911Z,9468.00
2019-03-06T11:59:41.836Z,9688.00
2019-03-06T12:00:41.843Z,9756.00
2019-03-06T12:02:34.763Z,9688.00
2019-03-06T12:03:34.784Z,9532.00
2019-03-06T12:05:27.713Z,9436.00
2019-03-06T12:06:27.725Z,9188.00
2019-03-06T12:08:20.643Z,8524.00
2019-03-06T12:09:20.658Z,8424.00
2019-03-06T12:11:13.578Z,7952.00
2019-03-06T12:12:13.588Z,8084.00
2019-03-06T12:14:06.514Z,8424.00
2019-03-06T12:15:06.518Z,8412.00
2019-03-06T12:16:59.436Z,8428.00
2019-03-06T12:17:59.455Z,8324.00
2019-03-06T12:19:52.380Z,7756.00
2019-03-06T12:20:52.389Z,7352.00
2019-03-06T12:22:45.305Z,6904.00
2019-03-06T12:23:45.352Z,6888.00
2019-03-06T12:25:38.247Z,5880.00
2019-03-06T12:26:38.255Z,5508.00
2019-03-06T12:28:31.169Z,5828.00
2019-03-06T12:29:31.190Z,6288.00
2019-03-06T12:31:24.114Z,7404.00
2019-03-06T12:32:24.125Z,7920.00
2019-03-06T12:34:17.046Z,8220.00
2019-03-06T12:35:17.059Z,8108.00
2019-03-06T12:37:09.994Z,7704.00
2019-03-06T12:38:10.901Z,7648.00
2019-03-06T12:40:11.873Z,7272.00
2019-03-06T12:41:02.923Z,7244.00
2019-03-06T12:42:55.862Z,7796.00
2019-03-06T12:43:55.856Z,7964.00
2019-03-06T12:45:48.780Z,8044.00
2019-03-06T12:46:48.790Z,7996.00
2019-03-06T12:48:41.712Z,7664.00
2019-03-06T12:49:41.728Z,7180.00
2019-03-06T12:51:34.651Z,6820.00
2019-03-06T12:52:34.660Z,6860.00
2019-03-06T12:54:27.589Z,7328.00
2019-03-06T12:55:27.593Z,7464.00
2019-03-06T12:57:20.507Z,7292.00
2019-03-06T12:58:20.530Z,7196.00
2019-03-06T13:00:13.448Z,7464.00
2019-03-06T13:01:13.450Z,7692.00
2019-03-06T13:03:06.376Z,7340.00
2019-03-06T13:04:06.402Z,6920.00
2019-03-06T13:05:59.405Z,6844.00
2019-03-06T13:06:59.326Z,7100.00
2019-03-06T13:08:52.263Z,7148.00
2019-03-06T13:09:52.277Z,7304.00
2019-03-06T13:11:45.200Z,7204.00
2019-03-06T13:12:45.210Z,7428.00
2019-03-06T13:14:38.136Z,7484.00
2019-03-06T13:15:38.148Z,7732.00
2019-03-06T13:17:31.064Z,8216.00
2019-03-06T13:18:31.081Z,8196.00
2019-03-06T13:20:24.496Z,7348.00
2019-03-06T13:21:24.525Z,6636.00
2019-03-06T13:23:17.419Z,5696.00
2019-03-06T13:24:17.445Z,5668.00
2019-03-06T13:26:10.959Z,5824.00
2019-03-06T13:27:10.878Z,5896.00
2019-03-06T13:29:03.796Z,5608.00
2019-03-06T13:30:03.813Z,5448.00
2019-03-06T13:31:56.729Z,5744.00
2019-03-06T13:32:56.772Z,5776.00
2019-03-06T13:34:51.498Z,5804.00
2019-03-06T13:35:49.675Z,5736.00
2019-03-06T13:37:42.593Z,5680.00
2019-03-06T13:38:42.628Z,5772.00
2019-03-06T13:40:35.536Z,6300.00
2019-03-06T13:41:35.533Z,6388.00
2019-03-06T13:43:28.459Z,6128.00
2019-03-06T13:44:28.486Z,5948.00
2019-03-06T13:46:21.397Z,6068.00
2019-03-06T13:47:21.407Z,6156.00
2019-03-06T13:49:14.324Z,5940.00
2019-03-06T13:50:14.338Z,5836.00
2019-03-06T13:52:07.290Z,5692.00
2019-03-06T13:53:07.299Z,5560.00
2019-03-06T13:55:00.338Z,5132.00
2019-03-06T13:56:00.231Z,4920.00
2019-03-06T13:57:53.152Z,4552.00
2019-03-06T13:58:53.170Z,4408.00
2019-03-06T14:00:46.097Z,4084.00
2019-03-06T14:01:46.107Z,3920.00
2019-03-06T14:03:39.018Z,3860.00
2019-03-06T14:04:39.039Z,3868.00
2019-03-06T14:06:31.958Z,3820.00
2019-03-06T14:07:31.970Z,3764.00
2019-03-06T14:09:24.945Z,3508.00
2019-03-06T14:10:24.900Z,3452.00
2019-03-06T14:12:17.828Z,3476.00
2019-03-06T14:13:17.838Z,3540.00
2019-03-06T14:15:10.762Z,3504.00
2019-03-06T14:16:10.768Z,3472.00
2019-03-06T14:18:03.679Z,3484.00
2019-03-06T14:19:03.694Z,3372.00
2019-03-06T14:20:57.110Z,3076.00
2019-03-06T14:21:57.120Z,2960.00
2019-03-06T14:23:50.040Z,2892.00
2019-03-06T14:24:50.054Z,2896.00
2019-03-06T14:26:42.974Z,3320.00
2019-03-06T14:27:42.978Z,3708.00
2019-03-06T14:29:35.897Z,3736.00
2019-03-06T14:30:35.912Z,3612.00
2019-03-06T14:32:28.837Z,3672.00
2019-03-06T14:33:28.848Z,3776.00
2019-03-06T14:35:21.771Z,3904.00
2019-03-06T14:36:21.782Z,3952.00
2019-03-06T14:38:15.689Z,3864.00
2019-03-06T14:39:15.706Z,3728.00
2019-03-06T14:41:08.627Z,3696.00
2019-03-06T14:42:08.675Z,3660.00
2019-03-06T14:44:01.551Z,3612.00
2019-03-06T14:45:01.571Z,3524.00
2019-03-06T14:46:54.486Z,3588.00
2019-03-06T14:47:54.496Z,3640.00
2019-03-06T14:49:47.903Z,3392.00
2019-03-06T14:50:47.930Z,3308.00
2019-03-06T14:52:40.871Z,3292.00
2019-03-06T14:53:40.861Z,3124.00
2019-03-06T14:55:33.785Z,2808.00
2019-03-06T14:56:33.792Z,2824.00
2019-03-06T14:58:26.705Z,2312.00
2019-03-06T14:59:26.722Z,1956.00
2019-03-06T15:01:19.648Z,2016.00
2019-03-06T15:02:19.657Z,2064.00
2019-03-06T15:04:12.561Z,2300.00
2019-03-06T15:05:12.581Z,2260.00
2019-03-06T15:07:06.493Z,1888.00
2019-03-06T15:08:06.503Z,1724.00
2019-03-06T15:09:59.412Z,1728.00
2019-03-06T15:10:59.757Z,1696.00
2019-03-06T15:12:53.273Z,1716.00
2019-03-06T15:13:53.254Z,1732.00
2019-03-06T15:15:46.166Z,1916.00
2019-03-06T15:16:46.164Z,1868.00
2019-03-06T15:18:39.121Z,1748.00
2019-03-06T15:19:39.295Z,1684.00
2019-03-06T15:21:32.053Z,1424.00
2019-03-06T15:22:38.393Z,1312.00
2019-03-06T15:24:24.986Z,1140.00
2019-03-06T15:25:25.035Z,1060.00
2019-03-06T15:27:17.888Z,984.00
2019-03-06T15:28:17.902Z,952.00
2019-03-06T15:30:10.814Z,912.00
2019-03-06T15:31:10.836Z,888.00
2019-03-06T15:33:03.759Z,832.00
2019-03-06T15:34:03.765Z,836.00
2019-03-06T15:35:56.699Z,976.00
2019-03-06T15:36:56.716Z,1020.00
2019-03-06T15:38:49.606Z,968.00
2019-03-06T15:39:49.630Z,892.00
2019-03-06T15:41:42.547Z,680.00
2019-03-06T15:42:42.543Z,612.00
2019-03-06T15:44:35.471Z,604.00
2019-03-06T15:45:35.483Z,648.00
2019-03-06T15:47:33.602Z,704.00
2019-03-06T15:48:28.406Z,732.00
2019-03-06T15:50:21.313Z,752.00
2019-03-06T15:51:21.331Z,736.00
2019-03-06T15:53:14.275Z,696.00
2019-03-06T15:54:14.277Z,656.00
2019-03-06T15:56:07.205Z,656.00
2019-03-06T15:57:07.214Z,644.00
2019-03-06T15:59:00.228Z,628.00
2019-03-06T16:00:00.317Z,624.00
2019-03-06T16:01:53.074Z,592.00
2019-03-06T16:02:53.078Z,576.00
2019-03-06T16:04:46.034Z,664.00
2019-03-06T16:05:46.004Z,756.00
2019-03-06T16:07:38.920Z,852.00
2019-03-06T16:08:38.932Z,956.00
2019-03-06T16:10:31.840Z,1040.00
2019-03-06T16:11:31.853Z,972.00
2019-03-06T16:13:24.772Z,832.00
2019-03-06T16:14:24.812Z,776.00
2019-03-06T16:16:17.702Z,696.00
2019-03-06T16:17:17.710Z,680.00
2019-03-06T16:19:10.616Z,744.00
2019-03-06T16:20:10.628Z,788.00
2019-03-06T16:22:03.545Z,888.00
2019-03-06T16:23:03.555Z,896.00
2019-03-06T16:24:56.468Z,856.00
2019-03-06T16:25:56.551Z,844.00
2019-03-06T16:27:49.420Z,824.00
2019-03-06T16:28:49.418Z,820.00
2019-03-06T16:30:42.331Z,764.00
2019-03-06T16:31:42.395Z,724.00
2019-03-06T16:33:35.269Z,672.00
2019-03-06T16:34:35.262Z,664.00
2019-03-06T16:36:28.184Z,648.00
2019-03-06T16:37:28.186Z,624.00
2019-03-06T16:39:21.100Z,584.00
2019-03-06T16:40:21.106Z,540.00
2019-03-06T16:42:14.020Z,496.00
2019-03-06T16:43:14.035Z,472.00
2019-03-06T16:45:06.938Z,428.00
2019-03-06T16:46:06.969Z,388.00
2019-03-06T16:47:59.863Z,316.00
2019-03-06T16:48:59.875Z,280.00
2019-03-06T16:50:52.779Z,228.00
2019-03-06T16:51:52.796Z,216.00
2019-03-06T16:53:45.710Z,212.00
2019-03-06T16:54:45.718Z,220.00
2019-03-06T16:56:38.651Z,192.00
2019-03-06T16:57:38.660Z,184.00
2019-03-06T16:59:31.565Z,148.00
2019-03-06T17:00:31.585Z,144.00
2019-03-06T17:02:24.491Z,140.00
2019-03-06T17:03:24.500Z,128.00
2019-03-06T17:05:17.407Z,120.00
2019-03-06T17:06:17.423Z,108.00
2019-03-06T17:08:10.335Z,92.00
2019-03-06T17:09:10.343Z,80.00
2019-03-06T17:11:03.250Z,68.00
2019-03-06T17:12:03.270Z,64.00
2019-03-06T17:13:56.181Z,52.00
2019-03-06T17:14:56.187Z,48.00
2019-03-06T17:16:49.105Z,40.00
2019-03-06T17:17:49.114Z,36.00
2019-03-06T17:19:42.021Z,28.00
2019-03-06T17:20:42.038Z,24.00
2019-03-06T17:22:34.952Z,16.00
2019-03-06T17:23:34.959Z,16.00
2019-03-06T17:25:28.442Z,12.00
2019-03-06T17:26:27.884Z,8.00
2019-03-06T17:28:20.797Z,8.00
2019-03-06T17:29:20.806Z,8.00
2019-03-06T17:31:13.713Z,8.00
2019-03-06T17:32:13.727Z,4.00
2019-03-06T17:34:06.644Z,4.00
2019-03-06T17:35:06.651Z,0.00
2019-03-06T17:37:01.274Z,4.00
2019-03-06T17:37:59.596Z,0.00
2019-03-06T17:39:52.494Z,0.00
2019-03-06T17:40:52.501Z,0.00
2019-03-06T17:42:45.412Z,0.00
2019-03-06T17:43:45.420Z,0.00
2019-03-06T17:45:38.328Z,0.00
2019-03-06T17:46:38.339Z,0.00
2019-03-06T17:48:31.253Z,0.00
2019-03-06T17:49:31.261Z,0.00
2019-03-06T17:51:24.169Z,0.00
2019-03-06T17:52:24.182Z,0.00
2019-03-06T17:54:17.099Z,0.00
2019-03-06T17:55:17.108Z,0.00
2019-03-06T17:57:10.022Z,0.00
2019-03-06T17:58:10.030Z,0.00
2019-03-06T18:00:02.942Z,0.00
2019-03-06T18:01:02.953Z,0.00
2019-03-06T18:02:55.870Z,0.00
2019-03-06T18:03:55.892Z,0.00
2019-03-06T18:05:48.786Z,0.00
2019-03-06T18:06:48.816Z,0.00
2019-03-06T18:08:41.715Z,0.00